createdAt,value
2022-10-17T00:00:52.444Z,14.01
2022-10-17T00:03:20.068Z,14.05
2022-10-17T00:05:48.429Z,13.99
2022-10-17T00:08:17.201Z,13.95
2022-10-17T00:10:45.216Z,13.94
2022-10-17T00:13:12.901Z,13.87
2022-10-17T00:15:44.365Z,13.84
2022-10-17T00:18:11.988Z,13.95
2022-10-17T00:20:39.320Z,13.97
2022-10-17T00:23:06.595Z,13.81
2022-10-17T00:25:34.211Z,13.90
2022-10-17T00:28:01.519Z,13.75
2022-10-17T00:30:28.824Z,13.73
2022-10-17T00:32:57.111Z,13.79
2022-10-17T00:35:25.152Z,13.78
2022-10-17T00:37:52.452Z,13.73
2022-10-17T00:40:20.123Z,13.64
2022-10-17T00:42:47.589Z,13.66
2022-10-17T00:45:26.419Z,13.67
2022-10-17T00:47:58.790Z,13.71
2022-10-17T00:50:26.595Z,13.74
2022-10-17T00:52:54.803Z,13.75
2022-10-17T00:55:25.850Z,13.61
2022-10-17T00:57:53.409Z,13.57
2022-10-17T01:00:21.073Z,13.56
2022-10-17T01:02:48.555Z,13.62
2022-10-17T01:05:18.041Z,13.66
2022-10-17T01:07:46.388Z,13.56
2022-10-17T01:10:14.245Z,13.49
2022-10-17T01:13:04.711Z,13.58
2022-10-17T01:16:00.286Z,13.45
2022-10-17T01:18:46.589Z,13.48
2022-10-17T01:21:17.053Z,13.49
2022-10-17T01:24:02.944Z,13.46
2022-10-17T01:26:37.562Z,13.38
2022-10-17T01:29:34.447Z,13.41
2022-10-17T01:32:14.113Z,13.44
2022-10-17T01:34:45.645Z,13.43
2022-10-17T01:37:20.219Z,13.41
2022-10-17T01:40:04.207Z,13.41
2022-10-17T01:43:03.759Z,13.30
2022-10-17T01:45:48.404Z,13.29
2022-10-17T01:48:22.910Z,13.20
2022-10-17T01:51:13.830Z,13.09
2022-10-17T01:53:49.160Z,13.22
2022-10-17T01:56:17.327Z,13.21
2022-10-17T01:58:55.568Z,13.24
2022-10-17T02:01:24.389Z,13.22
2022-10-17T02:03:52.987Z,13.22
2022-10-17T02:06:21.574Z,13.18
2022-10-17T02:08:51.642Z,13.08
2022-10-17T02:11:25.299Z,13.18
2022-10-17T02:14:10.066Z,13.15
2022-10-17T02:17:14.385Z,13.09
2022-10-17T02:20:01.625Z,13.04
2022-10-17T02:22:41.994Z,12.94
2022-10-17T02:25:20.692Z,13.01
2022-10-17T02:28:09.163Z,13.02
2022-10-17T02:30:39.797Z,13.03
2022-10-17T02:33:28.195Z,13.05
2022-10-17T02:36:00.695Z,13.01
2022-10-17T02:38:30.756Z,12.95
2022-10-17T02:40:59.194Z,12.88
2022-10-17T02:43:26.972Z,12.87
2022-10-17T02:45:54.617Z,12.95
2022-10-17T02:48:25.420Z,12.88
2022-10-17T02:51:16.889Z,12.85
2022-10-17T02:53:53.738Z,12.79
2022-10-17T02:56:21.689Z,12.73
2022-10-17T02:58:53.387Z,12.80
2022-10-17T03:01:21.119Z,12.80
2022-10-17T03:03:48.833Z,12.83
2022-10-17T03:06:16.320Z,12.79
2022-10-17T03:08:43.648Z,12.79
2022-10-17T03:11:11.665Z,12.79
2022-10-17T03:13:39.990Z,12.77
2022-10-17T03:16:07.703Z,12.75
2022-10-17T03:18:35.539Z,12.80
2022-10-17T03:21:03.185Z,12.68
2022-10-17T03:23:30.667Z,12.60
2022-10-17T03:25:58.431Z,12.60
2022-10-17T03:28:25.930Z,12.70
2022-10-17T03:30:53.384Z,12.64
2022-10-17T03:33:21.006Z,12.61
2022-10-17T03:38:21.357Z,12.55
2022-10-17T03:40:56.164Z,12.56
2022-10-17T03:43:23.832Z,12.55
2022-10-17T03:45:51.195Z,12.53
2022-10-17T03:48:18.597Z,12.38
2022-10-17T03:50:46.402Z,12.48
2022-10-17T03:53:13.985Z,12.47
2022-10-17T03:55:41.402Z,12.39
2022-10-17T03:58:09.110Z,12.30
2022-10-17T04:00:36.581Z,12.55
2022-10-17T04:03:04.326Z,12.44
2022-10-17T04:05:32.180Z,12.57
2022-10-17T04:08:02.411Z,12.63
2022-10-17T04:10:35.304Z,12.55
2022-10-17T04:13:03.001Z,12.55
2022-10-17T04:15:30.804Z,12.52
2022-10-17T04:17:58.744Z,12.42
2022-10-17T04:20:26.181Z,12.43
2022-10-17T04:22:53.680Z,12.42
2022-10-17T04:25:21.651Z,12.31
2022-10-17T04:27:49.230Z,12.34
2022-10-17T04:30:17.164Z,12.32
2022-10-17T04:32:45.183Z,12.28
2022-10-17T04:35:13.012Z,12.34
2022-10-17T04:37:41.472Z,12.29
2022-10-17T04:40:10.168Z,12.38
2022-10-17T04:42:37.987Z,12.47
2022-10-17T04:45:06.185Z,12.41
2022-10-17T04:47:35.197Z,12.44
2022-10-17T04:50:03.527Z,12.35
2022-10-17T04:52:32.516Z,12.33
2022-10-17T04:55:00.207Z,12.24
2022-10-17T04:57:27.653Z,12.27
2022-10-17T04:59:55.536Z,12.29
2022-10-17T05:02:23.503Z,12.31
2022-10-17T05:04:51.060Z,12.24
2022-10-17T05:07:18.444Z,12.19
2022-10-17T05:09:46.219Z,12.21
2022-10-17T05:12:13.738Z,12.19
2022-10-17T05:14:41.552Z,12.17
2022-10-17T05:17:09.183Z,12.20
2022-10-17T05:19:37.223Z,12.05
2022-10-17T05:22:04.886Z,12.12
2022-10-17T05:24:32.522Z,12.16
2022-10-17T05:26:59.878Z,12.22
2022-10-17T05:29:27.242Z,12.22
2022-10-17T05:31:55.375Z,12.17
2022-10-17T05:34:24.407Z,12.17
2022-10-17T05:36:51.778Z,12.23
2022-10-17T05:39:20.716Z,12.29
2022-10-17T05:41:48.910Z,12.23
2022-10-17T05:44:16.647Z,12.30
2022-10-17T05:46:45.551Z,12.34
2022-10-17T05:49:25.194Z,12.51
2022-10-17T05:51:59.954Z,12.58
2022-10-17T05:54:27.669Z,12.77
2022-10-17T05:56:56.191Z,12.95
2022-10-17T05:59:25.846Z,13.04
2022-10-17T06:01:54.326Z,13.17
2022-10-17T06:04:22.064Z,13.34
2022-10-17T06:06:49.474Z,13.65
2022-10-17T06:09:16.883Z,13.76
2022-10-17T06:11:44.771Z,13.88
2022-10-17T06:14:12.446Z,14.04
2022-10-17T06:16:40.174Z,14.25
2022-10-17T06:19:07.804Z,14.39
2022-10-17T06:21:37.755Z,14.65
2022-10-17T06:24:05.405Z,14.77
2022-10-17T06:26:33.273Z,14.81
2022-10-17T06:29:00.742Z,14.97
2022-10-17T06:31:29.119Z,15.06
2022-10-17T06:33:56.884Z,15.27
2022-10-17T06:36:24.254Z,15.44
2022-10-17T06:38:51.721Z,15.72
2022-10-17T06:41:19.550Z,15.80
2022-10-17T06:43:47.300Z,16.01
2022-10-17T06:46:26.688Z,16.25
2022-10-17T06:48:54.154Z,16.19
2022-10-17T06:51:22.500Z,16.46
2022-10-17T06:53:49.942Z,16.67
2022-10-17T06:56:22.594Z,16.82
2022-10-17T06:58:51.333Z,16.81
2022-10-17T07:01:18.942Z,16.91
2022-10-17T07:03:50.057Z,17.08
2022-10-17T07:06:17.992Z,17.18
2022-10-17T07:08:48.352Z,17.24
2022-10-17T07:11:19.394Z,17.22
2022-10-17T07:13:49.347Z,17.25
2022-10-17T07:16:17.115Z,17.39
2022-10-17T07:18:49.315Z,17.40
2022-10-17T07:21:17.188Z,17.49
2022-10-17T07:23:44.600Z,17.37
2022-10-17T07:26:14.576Z,17.48
2022-10-17T07:28:44.525Z,17.69
2022-10-17T07:31:16.933Z,17.57
2022-10-17T07:36:18.405Z,17.97
2022-10-17T07:38:46.779Z,18.03
2022-10-17T07:41:17.887Z,18.04
2022-10-17T07:43:48.926Z,18.20
2022-10-17T07:46:16.779Z,18.15
2022-10-17T07:48:45.084Z,18.29
2022-10-17T07:51:12.773Z,18.45
2022-10-17T07:53:42.722Z,18.39
2022-10-17T07:56:12.953Z,18.53
2022-10-17T07:58:40.363Z,18.59
2022-10-17T08:01:14.727Z,18.71
2022-10-17T08:03:48.493Z,18.94
2022-10-17T08:06:15.878Z,19.08
2022-10-17T08:08:44.316Z,19.06
2022-10-17T08:11:14.277Z,19.25
2022-10-17T08:13:42.349Z,19.19
2022-10-17T08:16:11.776Z,19.38
2022-10-17T08:18:40.379Z,19.47
2022-10-17T08:21:08.451Z,19.36
2022-10-17T08:23:36.821Z,19.83
2022-10-17T08:26:06.058Z,19.70
2022-10-17T08:28:38.380Z,19.68
2022-10-17T08:31:11.805Z,19.67
2022-10-17T08:33:39.525Z,19.79
2022-10-17T08:36:07.934Z,19.72
2022-10-17T08:38:37.553Z,19.72
2022-10-17T08:41:20.929Z,19.82
2022-10-17T08:44:00.623Z,19.60
2022-10-17T08:46:34.581Z,19.68
2022-10-17T08:49:05.682Z,19.67
2022-10-17T08:51:35.796Z,19.72
2022-10-17T08:54:14.773Z,19.61
2022-10-17T08:56:49.172Z,19.80
2022-10-17T08:59:19.317Z,19.92
2022-10-17T09:01:55.777Z,19.84
2022-10-17T09:04:54.527Z,20.00
2022-10-17T09:07:44.078Z,19.93
2022-10-17T09:10:29.899Z,19.89
2022-10-17T09:13:09.111Z,19.99
2022-10-17T09:16:01.350Z,20.06
2022-10-17T09:18:35.088Z,19.88
2022-10-17T09:21:24.078Z,19.98
2022-10-17T09:23:59.663Z,19.97
2022-10-17T09:26:39.031Z,19.99
2022-10-17T09:29:16.158Z,20.17
2022-10-17T09:32:03.775Z,20.38
2022-10-17T09:34:32.541Z,20.13
2022-10-17T09:37:00.936Z,20.32
2022-10-17T09:39:31.908Z,20.46
2022-10-17T09:42:00.838Z,20.38
2022-10-17T09:44:36.231Z,20.40
2022-10-17T09:47:23.416Z,20.73
2022-10-17T09:49:51.556Z,20.91
2022-10-17T09:52:22.736Z,20.94
2022-10-17T09:55:01.822Z,21.11
2022-10-17T09:57:54.059Z,21.09
2022-10-17T10:00:34.665Z,20.97
2022-10-17T10:03:28.444Z,21.29
2022-10-17T10:06:07.096Z,21.40
2022-10-17T10:08:37.452Z,21.30
2022-10-17T10:11:13.480Z,21.32
2022-10-17T10:13:42.757Z,21.39
2022-10-17T10:16:32.374Z,21.35
2022-10-17T10:18:59.928Z,21.44
2022-10-17T10:21:27.649Z,21.44
2022-10-17T10:24:10.151Z,21.68
2022-10-17T10:26:46.351Z,21.68
2022-10-17T10:29:31.157Z,21.62
2022-10-17T10:32:12.196Z,21.56
2022-10-17T10:34:49.151Z,21.80
2022-10-17T10:37:20.215Z,21.83
2022-10-17T10:39:49.882Z,21.84
2022-10-17T10:42:24.275Z,21.56
2022-10-17T10:44:52.724Z,21.88
2022-10-17T10:47:23.960Z,21.87
2022-10-17T10:49:53.320Z,22.04
2022-10-17T10:52:29.516Z,21.99
2022-10-17T10:55:21.431Z,22.06
2022-10-17T10:57:50.533Z,21.91
2022-10-17T11:00:24.956Z,21.96
2022-10-17T11:03:01.874Z,21.92
2022-10-17T11:05:35.703Z,21.97
2022-10-17T11:08:41.838Z,22.01
2022-10-17T11:11:18.279Z,22.03
2022-10-17T11:14:11.719Z,22.00
2022-10-17T11:17:10.427Z,22.03
2022-10-17T11:19:43.949Z,22.21
2022-10-17T11:22:16.950Z,22.31
2022-10-17T11:25:05.242Z,22.40
2022-10-17T11:27:34.119Z,22.47
2022-10-17T11:30:03.556Z,22.57
2022-10-17T11:32:45.121Z,22.45
2022-10-17T11:35:28.120Z,22.46
2022-10-17T11:38:24.271Z,22.55
2022-10-17T11:40:54.965Z,22.51
2022-10-17T11:43:33.079Z,22.61
2022-10-17T11:46:24.647Z,22.68
2022-10-17T11:48:57.972Z,22.82
2022-10-17T11:54:24.888Z,22.84
2022-10-17T11:57:21.523Z,22.94
2022-10-17T11:59:57.583Z,22.63
2022-10-17T12:02:36.922Z,22.56
2022-10-17T12:05:26.487Z,22.85
2022-10-17T12:08:03.408Z,22.86
2022-10-17T12:10:39.467Z,22.74
2022-10-17T12:13:28.802Z,22.55
2022-10-17T12:15:57.607Z,22.69
2022-10-17T12:18:27.358Z,22.81
2022-10-17T12:20:59.224Z,22.67
2022-10-17T12:23:27.253Z,22.78
2022-10-17T12:26:01.606Z,22.70
2022-10-17T12:28:34.239Z,22.68
2022-10-17T12:31:05.850Z,22.80
2022-10-17T12:33:50.016Z,22.59
2022-10-17T12:36:17.249Z,22.57
2022-10-17T12:38:49.860Z,22.73
2022-10-17T12:41:40.254Z,22.67
2022-10-17T12:44:14.100Z,22.61
2022-10-17T12:46:56.336Z,22.68
2022-10-17T12:49:42.551Z,22.50
2022-10-17T12:52:24.053Z,22.41
2022-10-17T12:55:00.527Z,22.46
2022-10-17T12:57:58.710Z,22.46
2022-10-17T13:00:49.669Z,22.74
2022-10-17T13:03:31.234Z,22.50
2022-10-17T13:06:01.230Z,22.43
2022-10-17T13:08:32.211Z,22.44
2022-10-17T13:11:00.068Z,22.58
2022-10-17T13:13:45.460Z,22.29
2022-10-17T13:16:37.068Z,22.37
2022-10-17T13:19:51.190Z,22.54
2022-10-17T13:22:28.147Z,22.55
2022-10-17T13:25:08.168Z,22.55
2022-10-17T13:27:36.192Z,22.46
2022-10-17T13:30:30.918Z,22.51
2022-10-17T13:33:01.117Z,22.58
2022-10-17T13:35:59.454Z,22.58
2022-10-17T13:38:28.378Z,22.54
2022-10-17T13:41:05.888Z,22.58
2022-10-17T13:43:43.843Z,22.50
2022-10-17T13:46:38.276Z,22.65
2022-10-17T13:49:35.014Z,22.50
2022-10-17T13:52:04.344Z,22.50
2022-10-17T13:54:40.267Z,22.53
2022-10-17T13:57:21.452Z,22.40
2022-10-17T13:59:55.016Z,22.38
2022-10-17T14:02:34.795Z,22.43
2022-10-17T14:05:17.870Z,22.57
2022-10-17T14:08:12.644Z,22.52
2022-10-17T14:10:43.387Z,22.43
2022-10-17T14:13:40.018Z,22.71
2022-10-17T14:16:08.561Z,22.67
2022-10-17T14:18:36.985Z,22.72
2022-10-17T14:24:22.459Z,22.43
2022-10-17T14:26:59.099Z,22.50
2022-10-17T14:29:50.050Z,22.52
2022-10-17T14:32:18.159Z,22.45
2022-10-17T14:34:46.829Z,22.40
2022-10-17T14:37:42.856Z,22.39
2022-10-17T14:40:21.314Z,22.37
2022-10-17T14:42:48.734Z,22.41
2022-10-17T14:45:26.596Z,22.31
2022-10-17T14:47:55.499Z,22.39
2022-10-17T14:50:32.079Z,22.42
2022-10-17T14:53:11.658Z,22.38
2022-10-17T14:55:40.773Z,22.34
2022-10-17T14:58:18.964Z,22.40
2022-10-17T15:00:46.541Z,22.34
2022-10-17T15:03:13.941Z,22.30
2022-10-17T15:05:41.664Z,22.17
2022-10-17T15:08:14.257Z,22.18
2022-10-17T15:10:41.992Z,22.15
2022-10-17T15:13:28.019Z,22.17
2022-10-17T15:15:56.272Z,22.14
2022-10-17T15:18:23.815Z,22.12
2022-10-17T15:20:59.513Z,22.03
2022-10-17T15:23:32.760Z,22.02
2022-10-17T15:26:00.740Z,22.08
2022-10-17T15:28:28.058Z,22.02
2022-10-17T15:30:55.711Z,22.03
2022-10-17T15:33:23.092Z,22.01
2022-10-17T15:35:51.772Z,21.90
2022-10-17T15:38:19.452Z,21.79
2022-10-17T15:40:50.738Z,21.75
2022-10-17T15:43:19.960Z,21.59
2022-10-17T15:45:48.175Z,21.45
2022-10-17T15:48:19.600Z,21.24
2022-10-17T15:50:46.910Z,21.29
2022-10-17T15:53:14.516Z,21.18
2022-10-17T15:55:42.053Z,21.05
2022-10-17T15:58:14.664Z,20.98
2022-10-17T16:00:42.327Z,20.85
2022-10-17T16:03:10.020Z,20.70
2022-10-17T16:05:37.355Z,20.63
2022-10-17T16:08:04.869Z,20.44
2022-10-17T16:10:33.278Z,20.33
2022-10-17T16:13:00.567Z,20.19
2022-10-17T16:15:28.162Z,20.05
2022-10-17T16:17:56.910Z,20.07
2022-10-17T16:20:24.909Z,20.02
2022-10-17T16:22:53.250Z,19.89
2022-10-17T16:25:26.216Z,19.72
2022-10-17T16:27:55.260Z,19.54
2022-10-17T16:30:24.753Z,19.59
2022-10-17T16:32:53.009Z,19.57
2022-10-17T16:35:33.088Z,19.35
2022-10-17T16:38:05.927Z,19.30
2022-10-17T16:40:33.461Z,19.25
2022-10-17T16:43:00.770Z,19.14
2022-10-17T16:45:28.372Z,19.00
2022-10-17T16:47:55.932Z,18.97
2022-10-17T16:50:23.289Z,18.89
2022-10-17T16:52:50.856Z,18.93
2022-10-17T16:55:18.950Z,18.76
2022-10-17T16:57:48.619Z,18.62
2022-10-17T17:00:17.396Z,18.55
2022-10-17T17:02:47.629Z,18.53
2022-10-17T17:05:15.265Z,18.50
2022-10-17T17:07:42.819Z,18.46
2022-10-17T17:10:10.148Z,18.36
2022-10-17T17:12:37.492Z,18.32
2022-10-17T17:15:06.108Z,18.27
2022-10-17T17:17:48.817Z,18.20
2022-10-17T17:20:17.946Z,18.16
2022-10-17T17:22:45.623Z,18.13
2022-10-17T17:25:12.915Z,17.99
2022-10-17T17:27:41.055Z,17.89
2022-10-17T17:30:08.763Z,17.85
2022-10-17T17:32:36.050Z,17.78
2022-10-17T17:35:03.835Z,17.80
2022-10-17T17:37:31.646Z,17.73
2022-10-17T17:39:59.157Z,17.64
2022-10-17T17:42:26.720Z,17.64
2022-10-17T17:44:54.011Z,17.58
2022-10-17T17:47:21.310Z,17.51
2022-10-17T17:49:48.848Z,17.49
2022-10-17T17:52:16.134Z,17.45
2022-10-17T17:54:44.492Z,17.36
2022-10-17T17:57:12.463Z,17.29
2022-10-17T17:59:41.098Z,17.28
2022-10-17T18:02:10.455Z,17.20
2022-10-17T18:04:38.058Z,17.18
2022-10-17T18:07:05.400Z,17.14
2022-10-17T18:09:32.696Z,17.13
2022-10-17T18:12:00.252Z,17.07
2022-10-17T18:14:27.576Z,17.05
2022-10-17T18:16:54.873Z,17.04
2022-10-17T18:19:23.726Z,16.92
2022-10-17T18:21:51.122Z,16.89
2022-10-17T18:24:18.412Z,16.77
2022-10-17T18:26:45.982Z,16.74
2022-10-17T18:29:13.281Z,16.73
2022-10-17T18:31:40.783Z,16.61
2022-10-17T18:34:08.343Z,16.66
2022-10-17T18:36:35.791Z,16.61
2022-10-17T18:39:04.330Z,16.61
2022-10-17T18:41:32.086Z,16.57
2022-10-17T18:43:59.658Z,16.44
2022-10-17T18:46:35.479Z,16.44
2022-10-17T18:49:03.453Z,16.43
2022-10-17T18:51:30.864Z,16.42
2022-10-17T18:53:58.734Z,16.37
2022-10-17T18:56:26.871Z,16.35
2022-10-17T18:58:54.990Z,16.30
2022-10-17T19:01:24.781Z,16.18
2022-10-17T19:03:53.934Z,16.22
2022-10-17T19:06:24.833Z,16.25
2022-10-17T19:08:52.547Z,16.17
2022-10-17T19:11:22.399Z,16.04
2022-10-17T19:13:50.109Z,15.90
2022-10-17T19:16:22.307Z,16.07
2022-10-17T19:18:51.344Z,16.19
2022-10-17T19:21:21.838Z,16.25
2022-10-17T19:23:51.603Z,16.19
2022-10-17T19:26:19.704Z,16.10
2022-10-17T19:28:47.815Z,16.06
2022-10-17T19:31:17.986Z,15.97
2022-10-17T19:33:46.039Z,15.95
2022-10-17T19:36:13.958Z,15.83
2022-10-17T19:38:41.270Z,15.80
2022-10-17T19:41:10.652Z,15.76
2022-10-17T19:43:42.031Z,15.80
2022-10-17T19:46:12.754Z,15.69
2022-10-17T19:48:40.113Z,15.65
2022-10-17T19:51:13.612Z,15.58
2022-10-17T19:53:41.883Z,15.57
2022-10-17T19:56:09.541Z,15.52
2022-10-17T19:58:44.413Z,15.58
2022-10-17T20:01:18.229Z,15.48
2022-10-17T20:03:46.194Z,15.51
2022-10-17T20:06:13.825Z,15.47
2022-10-17T20:08:41.434Z,15.48
2022-10-17T20:11:14.737Z,15.36
2022-10-17T20:13:42.197Z,15.35
2022-10-17T20:16:12.754Z,15.31
2022-10-17T20:18:40.912Z,15.40
2022-10-17T20:21:11.275Z,15.22
2022-10-17T20:23:39.573Z,15.31
2022-10-17T20:26:33.254Z,15.10
2022-10-17T20:29:04.178Z,15.19
2022-10-17T20:31:31.541Z,15.13
2022-10-17T20:33:59.576Z,15.13
2022-10-17T20:36:27.229Z,15.16
2022-10-17T20:38:55.643Z,15.11
2022-10-17T20:41:23.584Z,15.03
2022-10-17T20:43:53.750Z,15.05
2022-10-17T20:46:35.820Z,14.93
2022-10-17T20:49:05.972Z,15.07
2022-10-17T20:51:33.687Z,14.93
2022-10-17T20:54:00.992Z,14.83
2022-10-17T20:56:30.121Z,14.95
2022-10-17T20:58:59.857Z,14.89
2022-10-17T21:01:28.651Z,14.88
2022-10-17T21:03:59.638Z,14.81
2022-10-17T21:06:30.264Z,14.79
2022-10-17T21:08:58.095Z,14.74
2022-10-17T21:11:27.416Z,14.74
2022-10-17T21:14:02.460Z,14.76
2022-10-17T21:16:31.724Z,14.67
2022-10-17T21:18:59.430Z,14.68
2022-10-17T21:21:29.581Z,14.65
2022-10-17T21:24:00.296Z,14.71
2022-10-17T21:26:28.287Z,14.62
2022-10-17T21:28:55.682Z,14.62
2022-10-17T21:31:25.381Z,14.57
2022-10-17T21:33:56.248Z,14.60
2022-10-17T21:36:25.118Z,14.60
2022-10-17T21:38:54.138Z,14.47
2022-10-17T21:41:23.806Z,14.50
2022-10-17T21:43:56.651Z,14.39
2022-10-17T21:46:24.372Z,14.43
2022-10-17T21:48:52.271Z,14.37
2022-10-17T21:51:21.743Z,14.43
2022-10-17T21:53:50.277Z,14.37
2022-10-17T21:56:20.063Z,14.32
2022-10-17T21:58:47.948Z,14.30
2022-10-17T22:01:39.170Z,14.39
2022-10-17T22:04:09.900Z,14.34
2022-10-17T22:06:40.149Z,14.38
2022-10-17T22:09:11.770Z,14.24
2022-10-17T22:11:39.082Z,14.22
2022-10-17T22:14:17.234Z,14.18
2022-10-17T22:16:46.352Z,14.29
2022-10-17T22:19:15.754Z,14.20
2022-10-17T22:21:43.076Z,14.13
2022-10-17T22:24:12.529Z,14.01
2022-10-17T22:26:39.935Z,14.09
2022-10-17T22:29:08.147Z,14.07
2022-10-17T22:31:36.381Z,14.03
2022-10-17T22:34:05.475Z,14.01
2022-10-17T22:36:33.645Z,14.07
2022-10-17T22:39:01.298Z,13.98
2022-10-17T22:41:28.648Z,14.00
2022-10-17T22:43:55.950Z,14.02
2022-10-17T22:46:23.516Z,13.98
2022-10-17T22:48:50.867Z,13.91
2022-10-17T22:51:18.364Z,13.95
2022-10-17T22:53:45.943Z,13.89
2022-10-17T22:56:15.944Z,13.75
2022-10-17T22:58:43.315Z,13.86
2022-10-17T23:01:18.636Z,13.77
2022-10-17T23:03:46.625Z,13.77
2022-10-17T23:06:14.428Z,13.78
2022-10-17T23:08:42.177Z,13.80
2022-10-17T23:11:09.781Z,13.70
2022-10-17T23:13:37.434Z,13.68
2022-10-17T23:16:04.873Z,13.74
2022-10-17T23:18:32.215Z,13.61
2022-10-17T23:20:59.788Z,13.78
2022-10-17T23:23:27.083Z,13.69
2022-10-17T23:25:54.756Z,13.62
2022-10-17T23:28:22.323Z,13.71
2022-10-17T23:30:49.603Z,13.51
2022-10-17T23:33:16.910Z,13.62
2022-10-17T23:35:44.475Z,13.54
2022-10-17T23:38:11.781Z,13.52
2022-10-17T23:40:39.085Z,13.58
2022-10-17T23:43:06.674Z,13.58
2022-10-17T23:45:36.791Z,13.64
2022-10-17T23:48:05.469Z,13.51
2022-10-17T23:50:33.129Z,13.57
2022-10-17T23:53:00.408Z,13.52
2022-10-17T23:55:27.701Z,13.40
2022-10-17T23:57:55.387Z,13.48
